Airfield :
LOGIN :

Register | Disclaimer

   EN    FR    IT 

 










Legend :    VFR   Marginal VFR   IFR   Intensive IFR   Very Intensive IFR
Visi :
Ceiling :
>= 8 km
>= 3000ft
5 to 8 km
1000 to 3000 ft
1500m to 5 km
500 to 1000 ft
800 to 1500m
200 to 500 ft
< 800m
< 200 ft
Symbols :   Thunderstorms  Fog  Heavy snow  Heavy precipitations  Wind > 20 kt
SIGMETs :     Misc.  Thunderstorms  Icing  Turbulence  Mountain Waves  Volcanic Ashes






- Airport Elevation : 49 ft
- IATA code : GLZ


EHGR - Gilze-Rijen Airbase

CURRENT METAR :
  • 240625Z AUTO 13005KT 9999 OVC050 05/02 Q1020 BLU

EXPIRED METARs :
  • 240555Z AUTO 15002KT 9999 FEW050 OVC057 05/02 Q1021 BLU
  • 240525Z AUTO 13001KT 9999 FEW044 OVC062 05/02 Q1021 BLU
  • 240455Z AUTO 17004KT 130V200 9999 FEW064 OVC069 05/02 Q1022 BLU
  • 240425Z AUTO 18005KT 140V210 9999 FEW049 SCT055 BKN063 05/02 Q1022 BLU
  • 240355Z AUTO 19006KT 160V220 9999 FEW069 SCT081 BKN088 04/02 Q1023 BLU

TAF TAF EHGR
Valid from the 24 at 06:00 until the 24 at 18:00 UTC


240515Z 2406/2418 16005KT 9999 SCT045 BKN060
BECMG 2409/2411 21012G22KT SCT015 BKN020
TEMPO 2410/2414 3000 DZRA SCT005 BKN010
BECMG 2412/2414 24020G35KT
TEMPO 2414/2418 4000 RA SCT007 BKN010



MET'MAP, your aeronautical weather chart ! - Copyright ORBIFLY December 2007 - Disclaimer

ORBIFLY MET'MAP TEAM :

Programming & Development : Alexandra Zaïnal
Concept & original design : Baudouin d'Aumeries
Assistance for programming : Marc-Olivier Méhu
Technical & hardware support : Manuel Goepfert

Contact : metmap@orbifly.com




SOURCES & CREDITS :

   NOAA